Time;durP1;ratioP1;P1;durP2;ratioP2;P2;SDS_P1;SDS_P2;PMS_P1;PMS_P2;Temp;Humidity;BMP_temperature;BMP_pressure;BME280_temperature;BME280_humidity;BME280_pressure;Samples;Min_cycle;Max_cycle;Signal;HPM_P1;HPM_P2
2021/03/10 00:02:16;;;;;;;55.13;35.35;;;5.60;99.90;;;;;;5025467;28;20401;-63
2021/03/10 00:04:41;;;;;;;55.00;36.55;;;5.40;99.90;;;;;;5032859;28;20056;-62
2021/03/10 00:07:07;;;;;;;60.28;37.92;;;5.40;99.90;;;;;;5026698;28;20112;-63
2021/03/10 00:09:33;;;;;;;51.90;36.60;;;5.30;99.90;;;;;;5032957;28;20681;-62
2021/03/10 00:11:58;;;;;;;49.53;35.15;;;5.50;99.90;;;;;;5027646;28;20125;-62
2021/03/10 00:14:24;;;;;;;50.20;34.47;;;5.30;99.90;;;;;;5024469;28;20029;-62
2021/03/10 00:16:50;;;;;;;53.85;35.85;;;5.20;99.90;;;;;;5022988;28;20034;-62
2021/03/10 00:19:15;;;;;;;53.58;38.22;;;5.20;99.90;;;;;;5024583;28;20013;-62
2021/03/10 00:21:41;;;;;;;51.70;36.65;;;5.20;99.90;;;;;;5015448;28;20044;-62
2021/03/10 00:24:07;;;;;;;48.55;33.92;;;5.00;99.90;;;;;;5027210;28;20026;-63
2021/03/10 00:26:32;;;;;;;54.42;35.47;;;4.90;99.90;;;;;;5019482;28;20018;-63
2021/03/10 00:28:58;;;;;;;61.30;39.28;;;4.70;99.90;;;;;;5031374;28;20026;-62
2021/03/10 00:31:24;;;;;;;63.95;40.63;;;4.80;99.90;;;;;;5028640;28;20086;-63
2021/03/10 00:33:49;;;;;;;63.00;41.20;;;4.70;99.90;;;;;;5023508;28;20080;-63
2021/03/10 00:36:15;;;;;;;66.80;41.45;;;4.70;99.90;;;;;;5029712;28;20022;-62
2021/03/10 00:38:41;;;;;;;60.00;38.97;;;4.80;99.90;;;;;;5029010;28;20036;-63
2021/03/10 00:41:06;;;;;;;64.28;39.72;;;5.00;99.90;;;;;;5030493;28;20033;-62
2021/03/10 00:43:32;;;;;;;61.90;41.00;;;4.90;99.90;;;;;;5027929;28;20079;-63
2021/03/10 00:45:58;;;;;;;65.82;40.47;;;4.90;99.90;;;;;;5029947;28;20045;-64
2021/03/10 00:48:23;;;;;;;60.05;40.30;;;4.90;99.90;;;;;;5032232;28;20088;-62
2021/03/10 00:50:49;;;;;;;63.55;40.55;;;4.70;99.90;;;;;;5024041;28;20049;-62
2021/03/10 00:53:15;;;;;;;60.05;39.22;;;4.80;99.90;;;;;;5024884;28;20104;-63
2021/03/10 00:55:40;;;;;;;60.17;38.53;;;4.60;99.90;;;;;;5019247;28;20018;-63
2021/03/10 00:58:06;;;;;;;52.53;36.20;;;4.30;99.90;;;;;;5027328;28;20024;-62
2021/03/10 01:00:31;;;;;;;60.30;38.53;;;4.00;99.90;;;;;;5031367;28;20096;-63
2021/03/10 01:02:57;;;;;;;58.75;38.65;;;4.00;99.90;;;;;;5023582;28;20026;-63
2021/03/10 01:05:23;;;;;;;59.90;39.42;;;4.20;99.90;;;;;;5013577;28;20049;-63
2021/03/10 01:07:49;;;;;;;56.85;37.88;;;4.20;99.90;;;;;;5025096;28;20034;-63
2021/03/10 01:10:15;;;;;;;58.03;36.88;;;4.10;99.90;;;;;;5018970;28;20058;-62
2021/03/10 01:12:42;;;;;;;54.90;37.78;;;4.00;99.90;;;;;;5024921;28;20083;-63
2021/03/10 01:15:16;;;;;;;57.40;38.00;;;4.10;99.90;;;;;;5032081;28;20037;-64
2021/03/10 01:17:42;;;;;;;55.47;37.17;;;4.10;99.90;;;;;;5021980;28;20583;-63
2021/03/10 01:20:10;;;;;;;57.17;38.55;;;4.20;99.90;;;;;;5031195;28;20113;-63
2021/03/10 01:22:36;;;;;;;55.72;38.47;;;4.10;99.90;;;;;;5025571;28;20084;-63
2021/03/10 01:25:03;;;;;;;55.47;35.38;;;4.10;99.90;;;;;;5024789;28;20089;-63
2021/03/10 01:27:29;;;;;;;57.90;37.28;;;3.80;99.90;;;;;;5024940;28;20026;-63
2021/03/10 01:29:55;;;;;;;56.90;36.22;;;3.90;99.90;;;;;;5027313;28;20513;-62
2021/03/10 01:32:21;;;;;;;59.60;38.13;;;4.00;99.90;;;;;;5018375;28;20033;-62
2021/03/10 01:34:46;;;;;;;57.33;37.60;;;3.90;99.90;;;;;;5027854;28;20605;-63
2021/03/10 01:37:12;;;;;;;47.72;30.80;;;3.70;99.90;;;;;;5024250;28;20026;-63
2021/03/10 01:39:38;;;;;;;40.60;29.50;;;3.60;99.90;;;;;;5031452;28;20052;-63
2021/03/10 01:42:04;;;;;;;47.92;32.60;;;3.60;99.90;;;;;;5023149;28;20475;-63
2021/03/10 01:44:31;;;;;;;52.10;34.13;;;3.60;99.90;;;;;;5028359;28;20017;-63
2021/03/10 01:46:57;;;;;;;53.10;34.72;;;3.60;99.90;;;;;;5026662;28;20083;-62
2021/03/10 01:49:24;;;;;;;51.88;34.47;;;3.80;99.90;;;;;;5018285;28;20600;-63
2021/03/10 01:51:50;;;;;;;55.35;36.22;;;3.70;99.90;;;;;;5023353;28;20028;-63
2021/03/10 01:54:16;;;;;;;42.83;29.70;;;3.40;99.90;;;;;;5025568;28;20468;-63
2021/03/10 01:56:42;;;;;;;42.55;29.35;;;3.40;99.90;;;;;;5028837;28;20033;-63
2021/03/10 01:59:09;;;;;;;48.17;32.50;;;3.50;99.90;;;;;;5022738;28;20410;-63
2021/03/10 02:01:34;;;;;;;55.60;36.22;;;3.50;99.90;;;;;;5019557;28;20122;-63
2021/03/10 02:04:04;;;;;;;48.28;34.00;;;3.40;99.90;;;;;;5027790;28;20108;-63
2021/03/10 02:06:51;;;;;;;50.40;33.25;;;3.40;99.90;;;;;;5027002;28;20079;-63
2021/03/10 02:09:32;;;;;;;52.22;33.45;;;3.30;99.90;;;;;;5025056;28;20022;-63
2021/03/10 02:12:07;;;;;;;51.35;33.83;;;3.10;99.90;;;;;;5025224;28;20405;-63
2021/03/10 02:14:53;;;;;;;51.90;34.00;;;3.30;99.90;;;;;;5026027;28;20037;-63
2021/03/10 02:17:22;;;;;;;;;;;3.50;99.90;;;;;;5026287;28;20030;-63
2021/03/10 02:20:10;;;;;;;46.95;28.67;;;3.40;99.90;;;;;;5022802;28;20008;-63
2021/03/10 02:22:57;;;;;;;51.45;33.53;;;3.20;99.90;;;;;;5023559;28;20095;-63
2021/03/10 02:25:38;;;;;;;52.90;34.47;;;3.20;99.90;;;;;;5023189;28;20105;-62
2021/03/10 02:28:04;;;;;;;48.63;33.22;;;3.50;99.90;;;;;;5023644;28;20040;-63
2021/03/10 02:30:37;;;;;;;50.55;33.38;;;3.60;99.90;;;;;;5030016;28;20095;-63
2021/03/10 02:33:13;;;;;;;51.45;34.13;;;3.60;99.90;;;;;;5023636;28;20102;-63
2021/03/10 02:35:47;;;;;;;50.20;32.10;;;3.50;99.90;;;;;;5016079;28;20032;-63
2021/03/10 02:38:17;;;;;;;50.70;33.45;;;3.40;99.90;;;;;;5025586;28;20041;-63
2021/03/10 02:40:45;;;;;;;46.53;31.50;;;3.30;99.90;;;;;;5017405;28;20029;-63
2021/03/10 02:43:11;;;;;;;51.60;33.15;;;3.20;99.90;;;;;;5017543;28;20461;-63
2021/03/10 02:45:37;;;;;;;50.70;34.05;;;3.30;99.90;;;;;;5030428;28;20060;-64
2021/03/10 02:48:04;;;;;;;45.28;31.23;;;3.30;99.90;;;;;;5022085;28;20048;-63
2021/03/10 02:50:31;;;;;;;41.28;27.95;;;3.40;99.90;;;;;;5010530;28;20030;-63
2021/03/10 02:52:58;;;;;;;40.60;28.42;;;3.10;99.90;;;;;;5021256;28;20045;-63
2021/03/10 02:55:24;;;;;;;38.70;25.90;;;2.90;99.90;;;;;;5010083;28;20029;-63
2021/03/10 02:57:50;;;;;;;33.08;25.08;;;2.50;99.90;;;;;;5021308;28;20032;-63
2021/03/10 03:00:21;;;;;;;31.75;24.25;;;2.50;99.90;;;;;;5010489;28;20102;-63
2021/03/10 03:02:47;;;;;;;38.53;29.20;;;2.70;99.90;;;;;;5021312;28;20029;-63
2021/03/10 03:05:14;;;;;;;46.08;31.50;;;2.90;99.90;;;;;;5010212;28;20041;-63
2021/03/10 03:07:41;;;;;;;47.42;31.42;;;2.90;99.90;;;;;;5019613;28;20415;-63
2021/03/10 03:10:10;;;;;;;47.75;32.90;;;3.00;99.90;;;;;;5011406;28;20058;-62
2021/03/10 03:12:40;;;;;;;50.85;32.70;;;2.90;99.90;;;;;;5019486;28;20021;-63
2021/03/10 03:15:07;;;;;;;50.92;32.42;;;2.80;99.90;;;;;;5011253;28;20017;-63
2021/03/10 03:17:34;;;;;;;50.63;32.00;;;2.80;99.90;;;;;;5018717;28;20022;-63
2021/03/10 03:20:00;;;;;;;47.35;31.42;;;2.60;99.90;;;;;;5012239;28;20029;-64
2021/03/10 03:22:26;;;;;;;52.17;33.70;;;2.60;99.90;;;;;;5017780;28;20056;-63
2021/03/10 03:24:53;;;;;;;50.47;32.30;;;2.60;99.90;;;;;;5012942;28;20469;-63
2021/03/10 03:27:26;;;;;;;52.67;33.30;;;2.80;99.90;;;;;;5016991;28;20026;-63
2021/03/10 03:29:57;;;;;;;50.28;32.00;;;2.60;99.90;;;;;;5013022;28;20028;-63
2021/03/10 03:32:26;;;;;;;50.42;33.17;;;2.70;99.90;;;;;;5017257;28;20044;-63
2021/03/10 03:34:53;;;;;;;53.45;31.67;;;2.90;99.90;;;;;;5012152;28;20033;-63
2021/03/10 03:37:19;;;;;;;50.65;32.13;;;2.70;99.90;;;;;;5016571;28;20279;-63
2021/03/10 03:39:44;;;;;;;51.22;32.95;;;2.70;99.90;;;;;;5015370;28;20429;-63
2021/03/10 03:42:10;;;;;;;51.03;32.08;;;2.90;99.90;;;;;;5015060;28;20032;-64
2021/03/10 03:44:36;;;;;;;46.78;30.50;;;2.90;99.90;;;;;;5024039;28;20018;-63
2021/03/10 03:47:02;;;;;;;54.70;33.97;;;2.70;99.90;;;;;;5025703;28;20520;-63
2021/03/10 03:49:28;;;;;;;54.28;31.42;;;2.70;99.90;;;;;;5024484;28;20041;-64
2021/03/10 03:51:54;;;;;;;53.70;34.25;;;2.70;99.90;;;;;;5018797;28;20056;-64
2021/03/10 03:54:19;;;;;;;56.08;32.58;;;2.60;99.90;;;;;;5018748;28;20080;-64
2021/03/10 03:56:45;;;;;;;42.90;26.25;;;2.50;99.90;;;;;;5025212;28;20429;-65
2021/03/10 03:59:11;;;;;;;47.25;29.33;;;2.60;99.90;;;;;;5022373;28;20048;-63
2021/03/10 04:01:37;;;;;;;47.55;30.15;;;2.50;99.90;;;;;;5016822;28;20057;-64
2021/03/10 04:04:02;;;;;;;47.10;31.75;;;2.50;99.90;;;;;;5023164;28;20057;-63
2021/03/10 04:06:28;;;;;;;53.38;31.83;;;2.60;99.90;;;;;;5025197;28;20017;-64
2021/03/10 04:08:54;;;;;;;50.80;32.70;;;2.50;99.90;;;;;;5026102;28;20443;-64
2021/03/10 04:11:20;;;;;;;53.90;33.42;;;2.70;99.90;;;;;;5026448;28;20026;-64
2021/03/10 04:13:45;;;;;;;56.47;32.95;;;2.70;99.90;;;;;;5021791;28;20042;-64
2021/03/10 04:16:11;;;;;;;47.65;32.05;;;2.50;99.90;;;;;;5025268;28;20521;-65
2021/03/10 04:18:38;;;;;;;50.08;32.33;;;2.40;99.90;;;;;;5026404;28;20017;-64
2021/03/10 04:21:05;;;;;;;52.47;33.58;;;2.40;99.90;;;;;;5026321;28;20091;-64
2021/03/10 04:23:31;;;;;;;53.20;33.70;;;2.60;99.90;;;;;;5025517;28;20026;-64
2021/03/10 04:25:56;;;;;;;59.45;37.17;;;2.70;99.90;;;;;;5026647;28;20028;-66
2021/03/10 04:28:22;;;;;;;55.88;33.25;;;2.40;99.90;;;;;;5021881;28;20109;-64
2021/03/10 04:30:48;;;;;;;48.72;33.55;;;2.50;99.90;;;;;;5024453;28;20031;-64
2021/03/10 04:33:13;;;;;;;50.35;32.22;;;2.50;99.90;;;;;;5023650;28;20414;-64
2021/03/10 04:35:39;;;;;;;49.67;33.33;;;2.50;99.90;;;;;;5027725;28;20042;-65
2021/03/10 04:38:05;;;;;;;44.38;30.10;;;2.30;99.90;;;;;;5022355;28;20037;-65
2021/03/10 04:40:31;;;;;;;48.40;31.17;;;2.00;99.90;;;;;;5027623;28;20036;-64
2021/03/10 04:42:56;;;;;;;49.72;30.85;;;1.90;99.90;;;;;;5026580;28;20051;-64
2021/03/10 04:45:22;;;;;;;45.20;28.85;;;2.10;99.90;;;;;;5028746;28;20014;-65
2021/03/10 04:47:48;;;;;;;48.50;30.48;;;2.10;99.90;;;;;;5024281;28;20405;-64
2021/03/10 04:50:15;;;;;;;47.63;31.15;;;2.20;99.90;;;;;;5023175;28;20014;-65
2021/03/10 04:52:41;;;;;;;46.60;29.40;;;2.00;99.90;;;;;;5026110;28;20076;-64
2021/03/10 04:55:08;;;;;;;45.15;29.75;;;1.80;99.90;;;;;;5030071;28;20037;-65
2021/03/10 04:57:34;;;;;;;41.90;28.67;;;2.10;99.90;;;;;;5024246;28;20029;-65
2021/03/10 05:00:01;;;;;;;44.78;29.88;;;2.00;99.90;;;;;;5029154;28;20508;-65
2021/03/10 05:02:26;;;;;;;56.38;33.65;;;2.00;99.90;;;;;;5027339;28;20026;-65
2021/03/10 05:04:52;;;;;;;50.72;31.42;;;1.90;99.90;;;;;;5028172;28;20045;-64
2021/03/10 05:07:18;;;;;;;56.50;33.08;;;1.90;99.90;;;;;;5026172;28;20092;-65
2021/03/10 05:09:43;;;;;;;40.65;27.45;;;1.90;99.90;;;;;;5023773;28;20468;-65
2021/03/10 05:12:09;;;;;;;44.80;28.98;;;1.90;99.90;;;;;;5036599;28;20032;-65
2021/03/10 05:14:35;;;;;;;43.75;29.38;;;1.80;99.90;;;;;;5040450;28;20045;-64
2021/03/10 05:17:01;;;;;;;47.80;31.30;;;1.90;99.90;;;;;;5025119;28;20055;-65
2021/03/10 05:19:27;;;;;;;41.28;29.00;;;1.80;99.90;;;;;;5021804;28;20045;-65
2021/03/10 05:21:53;;;;;;;51.70;33.85;;;2.00;99.90;;;;;;5025386;28;20514;-65
2021/03/10 05:24:19;;;;;;;47.78;31.30;;;2.00;99.90;;;;;;5020118;28;20474;-64
2021/03/10 05:26:44;;;;;;;48.80;31.15;;;1.70;99.90;;;;;;5014516;28;20026;-65
2021/03/10 05:29:10;;;;;;;46.67;30.00;;;2.00;99.90;;;;;;5020630;28;20030;-65
2021/03/10 05:31:36;;;;;;;47.67;30.73;;;2.20;99.90;;;;;;5014469;28;20025;-65
2021/03/10 05:34:01;;;;;;;49.53;30.40;;;2.10;99.90;;;;;;5020658;28;20069;-65
2021/03/10 05:36:27;;;;;;;46.75;31.33;;;2.10;99.90;;;;;;5014084;28;20029;-64
2021/03/10 05:38:53;;;;;;;55.15;32.20;;;2.00;99.90;;;;;;5020607;28;20033;-65
2021/03/10 05:41:18;;;;;;;50.38;33.28;;;2.10;99.90;;;;;;5012914;28;20030;-65
2021/03/10 05:43:44;;;;;;;50.72;30.52;;;1.90;99.90;;;;;;5027436;28;20030;-65
2021/03/10 05:46:11;;;;;;;47.85;31.20;;;2.00;99.90;;;;;;5029710;28;20409;-65
2021/03/10 05:48:39;;;;;;;49.10;33.25;;;2.10;99.90;;;;;;5021121;28;20026;-65
2021/03/10 05:51:05;;;;;;;46.50;31.63;;;2.10;99.90;;;;;;5012354;28;20034;-65
2021/03/10 05:53:41;;;;;;;48.17;31.02;;;1.80;99.90;;;;;;5021516;28;20053;-64
2021/03/10 05:56:07;;;;;;;50.83;31.98;;;2.00;99.90;;;;;;5011961;28;20022;-65
2021/03/10 05:58:32;;;;;;;57.33;31.27;;;1.90;99.90;;;;;;5021003;28;20029;-65
2021/03/10 06:00:58;;;;;;;45.78;30.45;;;2.10;99.90;;;;;;5011728;28;20038;-65
2021/03/10 06:03:24;;;;;;;45.97;31.42;;;1.80;99.90;;;;;;5022212;28;20029;-65
2021/03/10 06:06:04;;;;;;;46.05;30.48;;;1.80;99.90;;;;;;5010935;28;20100;-65
2021/03/10 06:08:31;;;;;;;53.10;32.42;;;1.80;99.90;;;;;;5020626;28;20036;-65
2021/03/10 06:10:57;;;;;;;51.95;30.48;;;1.70;99.90;;;;;;5029739;28;20022;-65
2021/03/10 06:13:30;;;;;;;53.20;31.58;;;1.70;99.90;;;;;;5021846;28;20073;-65
2021/03/10 06:15:58;;;;;;;45.85;27.85;;;1.70;99.90;;;;;;5011587;28;20145;-65
2021/03/10 06:18:33;;;;;;;44.83;28.88;;;1.70;99.90;;;;;;5025232;28;20410;-65
2021/03/10 06:21:13;;;;;;;43.72;28.38;;;1.40;99.90;;;;;;5011376;28;20056;-65
2021/03/10 06:23:57;;;;;;;57.50;34.40;;;1.50;99.90;;;;;;5021456;28;20029;-65
2021/03/10 06:26:25;;;;;;;59.67;35.67;;;1.70;99.90;;;;;;5028183;28;20030;-66
2021/03/10 06:28:51;;;;;;;60.85;35.67;;;1.60;99.90;;;;;;5029542;28;20544;-65
2021/03/10 06:31:17;;;;;;;50.17;32.03;;;1.70;99.90;;;;;;5026331;28;20018;-65
2021/03/10 06:33:43;;;;;;;56.60;33.03;;;1.70;99.90;;;;;;5029404;28;20517;-65
2021/03/10 06:36:09;;;;;;;46.97;30.13;;;1.60;99.90;;;;;;5027581;28;20913;-65
2021/03/10 06:38:34;;;;;;;46.33;29.50;;;1.60;99.90;;;;;;5029267;28;20029;-65
2021/03/10 06:41:00;;;;;;;43.47;27.75;;;1.50;99.90;;;;;;5028837;28;20025;-65
2021/03/10 06:43:42;;;;;;;45.90;29.05;;;1.50;99.90;;;;;;5027698;28;20101;-65
2021/03/10 06:46:12;;;;;;;44.60;27.77;;;1.40;99.90;;;;;;5026697;28;20029;-65
2021/03/10 06:48:38;;;;;;;48.70;30.58;;;1.20;99.90;;;;;;5029810;28;20022;-65
2021/03/10 06:51:13;;;;;;;47.40;28.92;;;1.30;99.90;;;;;;5028291;28;20108;-65
2021/03/10 06:53:39;;;;;;;59.95;33.97;;;1.10;99.90;;;;;;5029133;28;20030;-65
2021/03/10 06:56:05;;;;;;;68.15;35.67;;;1.30;99.90;;;;;;5025061;28;20092;-65
2021/03/10 06:58:31;;;;;;;62.03;34.47;;;1.70;99.90;;;;;;5028837;28;20029;-65
2021/03/10 07:01:03;;;;;;;50.97;32.40;;;1.90;99.90;;;;;;5028165;28;20029;-65
2021/03/10 07:03:30;;;;;;;67.25;39.40;;;1.80;99.90;;;;;;5029323;28;20029;-65
2021/03/10 07:05:57;;;;;;;70.68;39.10;;;1.80;99.90;;;;;;5028074;28;20060;-64
2021/03/10 07:08:26;;;;;;;61.28;38.67;;;1.60;99.90;;;;;;5028467;28;20029;-65
2021/03/10 07:10:53;;;;;;;68.53;41.03;;;1.70;99.90;;;;;;5028027;28;20037;-65
2021/03/10 07:13:19;;;;;;;73.78;39.22;;;1.80;99.90;;;;;;5027398;28;20033;-65
2021/03/10 07:15:46;;;;;;;69.93;39.70;;;1.80;99.90;;;;;;5029331;28;20029;-65
2021/03/10 07:18:13;;;;;;;77.60;42.72;;;2.10;99.90;;;;;;5027133;28;20084;-65
2021/03/10 07:20:43;;;;;;;67.45;38.13;;;2.20;99.90;;;;;;5028873;28;20022;-65
2021/03/10 07:23:15;;;;;;;70.55;40.15;;;2.10;99.90;;;;;;5026831;28;20053;-65
2021/03/10 07:25:43;;;;;;;69.45;39.55;;;2.30;99.90;;;;;;5029182;28;20049;-65
2021/03/10 07:28:12;;;;;;;64.70;38.85;;;2.30;99.90;;;;;;5026700;28;20029;-65
2021/03/10 07:30:42;;;;;;;65.25;38.95;;;2.30;99.90;;;;;;5029594;28;20037;-65
2021/03/10 07:33:09;;;;;;;72.65;39.45;;;2.30;99.90;;;;;;5021415;28;20029;-65
2021/03/10 07:35:47;;;;;;;64.78;37.42;;;2.40;99.90;;;;;;5009763;28;20026;-65
2021/03/10 07:38:13;;;;;;;66.80;39.83;;;2.50;99.90;;;;;;5017615;28;20030;-65
2021/03/10 07:40:38;;;;;;;65.53;37.50;;;2.70;99.90;;;;;;5029649;28;20040;-65
2021/03/10 07:43:04;;;;;;;71.00;39.42;;;2.80;99.90;;;;;;5022919;28;20032;-65
2021/03/10 07:45:43;;;;;;;63.10;36.50;;;2.90;99.90;;;;;;5029512;28;20087;-65
2021/03/10 07:48:10;;;;;;;70.72;36.80;;;3.00;99.90;;;;;;5022267;28;20278;-62
2021/03/10 07:50:40;;;;;;;69.45;37.75;;;3.10;99.90;;;;;;5012836;28;20127;-63
2021/03/10 07:53:06;;;;;;;59.83;35.22;;;2.90;99.90;;;;;;5031084;28;20090;-62
2021/03/10 07:55:52;;;;;;;70.68;38.65;;;3.10;99.90;;;;;;5038915;28;20112;-62
2021/03/10 07:58:28;;;;;;;77.90;38.88;;;3.00;99.90;;;;;;5039807;28;20038;-62
2021/03/10 08:00:55;;;;;;;58.40;35.60;;;3.30;99.90;;;;;;5046346;28;20033;-63
2021/03/10 08:03:46;;;;;;;62.45;36.05;;;3.40;99.90;;;;;;5033274;28;20037;-65
2021/03/10 08:06:13;;;;;;;61.80;36.67;;;3.80;99.90;;;;;;5030756;28;20037;-62
2021/03/10 08:08:43;;;;;;;62.97;37.08;;;4.00;99.90;;;;;;5020949;28;20558;-62
2021/03/10 08:11:11;;;;;;;59.88;35.15;;;4.10;99.90;;;;;;5026939;28;20660;-61
2021/03/10 08:13:37;;;;;;;61.92;36.38;;;4.00;99.90;;;;;;5018898;28;20057;-61
2021/03/10 08:16:05;;;;;;;64.97;37.35;;;4.10;99.90;;;;;;5009538;28;20030;-61
2021/03/10 08:18:34;;;;;;;58.95;36.75;;;3.90;99.90;;;;;;5019826;28;20021;-62
2021/03/10 08:21:16;;;;;;;60.40;35.35;;;4.30;99.90;;;;;;5012308;28;20034;-61
2021/03/10 08:23:42;;;;;;;66.10;35.95;;;4.40;99.90;;;;;;5023780;28;20029;-61
2021/03/10 08:26:08;;;;;;;58.58;35.53;;;4.50;99.90;;;;;;5031241;28;20315;-61
2021/03/10 08:28:41;;;;;;;59.08;35.10;;;4.80;99.90;;;;;;5022527;28;20026;-61
2021/03/10 08:31:09;;;;;;;61.78;35.45;;;4.80;99.90;;;;;;5031224;28;20544;-61
2021/03/10 08:33:52;;;;;;;60.70;34.85;;;4.80;99.90;;;;;;5028190;28;20517;-61
2021/03/10 08:36:31;;;;;;;59.05;34.90;;;5.00;99.90;;;;;;5021713;28;20030;-61
2021/03/10 08:38:58;;;;;;;63.22;36.42;;;4.90;99.90;;;;;;5021512;28;20117;-60
2021/03/10 08:41:24;;;;;;;56.33;34.47;;;5.20;99.90;;;;;;5015353;28;20036;-60
2021/03/10 08:44:01;;;;;;;61.50;35.65;;;5.30;99.90;;;;;;5028682;28;20030;-60
2021/03/10 08:46:46;;;;;;;53.05;33.38;;;5.50;99.90;;;;;;5029671;28;20494;-60
2021/03/10 08:49:24;;;;;;;55.20;33.47;;;5.50;99.90;;;;;;5021486;28;20037;-60
2021/03/10 08:52:11;;;;;;;48.85;33.03;;;5.50;99.90;;;;;;5015017;28;20101;-60
2021/03/10 08:54:44;;;;;;;59.30;34.45;;;5.60;99.90;;;;;;5025628;28;20049;-59
2021/03/10 08:57:10;;;;;;;57.78;34.33;;;5.70;99.90;;;;;;5029881;28;20083;-60
2021/03/10 08:59:37;;;;;;;53.65;32.80;;;5.80;99.90;;;;;;5031636;28;20044;-60
2021/03/10 09:02:03;;;;;;;62.38;35.17;;;6.10;99.90;;;;;;5025819;28;20037;-59
2021/03/10 09:04:28;;;;;;;62.20;33.75;;;6.40;99.90;;;;;;5031095;28;20072;-60
2021/03/10 09:06:59;;;;;;;56.90;35.72;;;6.40;99.90;;;;;;5025252;28;20058;-60
2021/03/10 09:09:25;;;;;;;51.42;32.45;;;6.60;99.90;;;;;;5020223;28;20030;-59
2021/03/10 09:11:53;;;;;;;51.67;33.15;;;6.80;99.90;;;;;;5024910;28;20037;-60
2021/03/10 09:14:21;;;;;;;54.40;33.00;;;6.90;99.90;;;;;;5023677;28;20030;-60
2021/03/10 09:17:05;;;;;;;55.42;33.42;;;6.80;99.90;;;;;;5029555;28;20068;-60
2021/03/10 09:19:39;;;;;;;52.65;32.88;;;6.90;99.90;;;;;;5024770;28;20032;-60
2021/03/10 09:22:19;;;;;;;59.35;33.50;;;7.00;99.90;;;;;;5025144;28;20033;-60
2021/03/10 09:24:48;;;;;;;51.58;32.30;;;7.10;99.90;;;;;;5017258;28;20065;-60
2021/03/10 09:27:28;;;;;;;56.47;34.47;;;7.60;99.90;;;;;;5017168;28;20029;-60
2021/03/10 09:29:56;;;;;;;53.58;33.35;;;7.90;99.90;;;;;;5015779;28;20518;-60
2021/03/10 09:32:23;;;;;;;51.72;33.85;;;7.80;99.90;;;;;;5016855;28;20036;-61
2021/03/10 09:34:53;;;;;;;48.92;32.33;;;7.90;99.90;;;;;;5016470;28;20080;-60
2021/03/10 09:37:28;;;;;;;47.70;32.92;;;8.20;99.90;;;;;;5022148;28;20032;-61
2021/03/10 09:39:55;;;;;;;52.22;33.08;;;7.90;99.90;;;;;;5029606;28;20022;-60
2021/03/10 09:42:27;;;;;;;49.20;32.83;;;8.00;99.90;;;;;;5029225;28;20527;-60
2021/03/10 09:44:53;;;;;;;46.38;32.72;;;8.00;99.90;;;;;;5030497;28;20025;-60
2021/03/10 09:47:23;;;;;;;54.25;32.88;;;8.20;99.90;;;;;;5029065;28;20057;-61
2021/03/10 09:49:58;;;;;;;49.63;32.33;;;8.00;99.90;;;;;;5029104;28;20079;-60
2021/03/10 09:52:32;;;;;;;48.53;31.90;;;8.20;99.90;;;;;;5026520;28;20026;-60
2021/03/10 09:54:58;;;;;;;49.47;31.35;;;8.60;99.90;;;;;;5030510;28;20037;-61
2021/03/10 09:57:27;;;;;;;44.78;31.55;;;8.50;99.90;;;;;;5028605;28;20033;-60
2021/03/10 09:59:57;;;;;;;45.97;31.90;;;8.50;99.90;;;;;;5030502;28;20022;-60
2021/03/10 10:02:24;;;;;;;53.38;30.92;;;9.00;99.90;;;;;;5021370;28;20030;-60
2021/03/10 10:04:59;;;;;;;46.75;31.70;;;8.70;99.90;;;;;;5026604;28;20053;-63
2021/03/10 10:07:27;;;;;;;53.88;33.30;;;9.20;99.90;;;;;;5024812;28;20486;-61
2021/03/10 10:09:53;;;;;;;44.55;29.88;;;9.20;99.90;;;;;;5017515;28;20026;-60
2021/03/10 10:12:20;;;;;;;42.83;31.10;;;9.30;99.90;;;;;;5024228;28;20448;-60
2021/03/10 10:14:45;;;;;;;44.30;30.80;;;9.50;99.90;;;;;;5015185;28;20670;-60
2021/03/10 10:17:12;;;;;;;46.45;28.50;;;9.20;99.90;;;;;;5016071;28;20056;-60
2021/03/10 10:19:38;;;;;;;39.50;29.15;;;9.10;99.90;;;;;;5034989;28;20491;-61
2021/03/10 10:22:04;;;;;;;53.28;28.40;;;9.50;99.90;;;;;;5023735;28;20064;-60
2021/03/10 10:24:29;;;;;;;39.45;29.05;;;9.70;99.90;;;;;;5018278;28;20391;-60
2021/03/10 10:26:55;;;;;;;39.20;29.00;;;9.30;99.90;;;;;;5012965;28;20026;-60
2021/03/10 10:29:21;;;;;;;41.40;28.00;;;9.70;99.90;;;;;;5019355;28;20021;-60
2021/03/10 10:31:47;;;;;;;40.75;27.13;;;10.20;99.90;;;;;;5014784;28;20038;-60
2021/03/10 10:34:13;;;;;;;32.10;24.88;;;10.20;99.90;;;;;;5019388;28;20566;-60
2021/03/10 10:36:38;;;;;;;34.75;26.10;;;10.20;99.90;;;;;;5021667;28;20490;-60
2021/03/10 10:39:04;;;;;;;33.88;25.00;;;10.20;99.90;;;;;;5018850;28;20033;-60
2021/03/10 10:41:30;;;;;;;31.17;26.08;;;10.60;99.90;;;;;;5020432;28;20474;-60
2021/03/10 10:43:56;;;;;;;37.85;23.88;;;10.40;99.90;;;;;;5022394;28;20500;-60
2021/03/10 10:46:22;;;;;;;35.72;25.33;;;10.80;99.90;;;;;;5029841;28;20100;-60
2021/03/10 10:48:48;;;;;;;36.22;24.35;;;10.80;99.90;;;;;;5019399;28;20052;-60
2021/03/10 10:51:13;;;;;;;32.30;23.08;;;11.30;99.90;;;;;;5011635;28;20068;-59
2021/03/10 10:53:39;;;;;;;27.77;22.20;;;11.40;99.90;;;;;;5020266;28;20034;-59
2021/03/10 10:56:05;;;;;;;28.15;21.15;;;11.50;99.90;;;;;;5010701;28;20114;-59
2021/03/10 10:58:30;;;;;;;27.02;22.45;;;11.70;99.90;;;;;;5021271;28;20086;-60
2021/03/10 11:00:56;;;;;;;23.33;20.40;;;11.40;99.90;;;;;;5010455;28;20022;-60
2021/03/10 11:03:23;;;;;;;27.85;20.98;;;11.60;99.90;;;;;;5021405;28;20029;-60
2021/03/10 11:05:49;;;;;;;28.23;21.95;;;11.70;99.90;;;;;;5009991;28;20218;-60
2021/03/10 11:08:15;;;;;;;25.23;20.55;;;12.30;99.90;;;;;;5021294;28;20413;-60
2021/03/10 11:10:41;;;;;;;25.02;18.77;;;12.00;99.90;;;;;;5028253;28;20059;-60
2021/03/10 11:13:06;;;;;;;18.65;15.57;;;12.60;99.90;;;;;;5027713;28;20849;-60
2021/03/10 11:15:32;;;;;;;17.50;15.70;;;13.00;99.90;;;;;;5030224;28;20040;-60
2021/03/10 11:17:58;;;;;;;23.58;16.15;;;12.60;99.90;;;;;;5027464;28;20025;-59
2021/03/10 11:20:24;;;;;;;27.45;19.10;;;12.70;99.90;;;;;;5028542;28;20026;-60
2021/03/10 11:22:49;;;;;;;23.70;19.77;;;13.00;99.90;;;;;;5027252;28;20105;-63
2021/03/10 11:25:15;;;;;;;24.38;20.58;;;12.90;99.90;;;;;;5029846;28;20116;-60
2021/03/10 11:27:41;;;;;;;28.77;20.85;;;12.50;99.90;;;;;;5023819;28;20561;-60
2021/03/10 11:30:09;;;;;;;28.42;20.67;;;12.60;99.90;;;;;;5012320;28;20058;-60
2021/03/10 11:32:35;;;;;;;27.15;20.27;;;13.30;99.90;;;;;;5018650;28;20517;-60
2021/03/10 11:35:02;;;;;;;23.77;21.00;;;13.10;99.90;;;;;;5028868;28;20068;-60
2021/03/10 11:37:28;;;;;;;28.10;22.00;;;13.20;99.90;;;;;;5027076;28;20024;-60
2021/03/10 11:39:54;;;;;;;30.33;23.92;;;13.30;99.90;;;;;;5029165;28;20026;-61
2021/03/10 11:42:20;;;;;;;33.03;23.15;;;12.20;99.90;;;;;;5023954;28;20029;-60
2021/03/10 11:44:45;;;;;;;25.92;22.13;;;13.10;99.90;;;;;;5029073;28;20465;-60
2021/03/10 11:47:11;;;;;;;27.30;22.20;;;13.30;99.90;;;;;;5026623;28;20033;-60
2021/03/10 11:49:37;;;;;;;27.20;22.10;;;13.70;99.90;;;;;;5016280;28;20030;-60
2021/03/10 11:52:04;;;;;;;26.65;21.75;;;13.40;99.90;;;;;;5012871;28;20041;-61
2021/03/10 11:54:30;;;;;;;30.23;22.13;;;13.30;99.90;;;;;;5017259;28;20037;-60
2021/03/10 11:56:55;;;;;;;25.58;21.60;;;13.30;99.90;;;;;;5024329;28;20045;-61
2021/03/10 11:59:21;;;;;;;24.58;20.88;;;13.70;99.90;;;;;;5033156;28;20498;-61
2021/03/10 12:01:47;;;;;;;25.85;22.33;;;14.10;99.90;;;;;;5028589;28;20065;-61
2021/03/10 12:04:12;;;;;;;29.63;22.63;;;13.50;99.90;;;;;;5022046;28;20081;-60
2021/03/10 12:06:38;;;;;;;26.80;20.88;;;13.10;99.90;;;;;;5015801;28;20021;-61
2021/03/10 12:09:04;;;;;;;21.65;19.35;;;14.20;99.90;;;;;;5028981;28;20538;-60
2021/03/10 12:11:29;;;;;;;26.25;20.40;;;14.30;99.90;;;;;;5030547;28;20093;-60
2021/03/10 12:13:55;;;;;;;25.40;20.65;;;14.00;99.80;;;;;;5022185;28;20026;-60
2021/03/10 12:16:21;;;;;;;26.05;20.60;;;13.80;99.90;;;;;;5015496;28;20034;-64
2021/03/10 12:18:46;;;;;;;25.83;21.90;;;14.50;99.90;;;;;;5027795;28;20118;-62
2021/03/10 12:21:12;;;;;;;26.08;20.73;;;14.50;99.90;;;;;;5030568;28;20150;-63
2021/03/10 12:23:38;;;;;;;24.75;21.30;;;14.40;99.90;;;;;;5031915;28;20024;-62
2021/03/10 12:26:04;;;;;;;25.17;20.65;;;14.50;99.90;;;;;;5031801;28;20493;-63
2021/03/10 12:28:29;;;;;;;25.27;19.70;;;14.50;99.90;;;;;;5023725;28;20109;-62
2021/03/10 12:30:57;;;;;;;31.00;23.38;;;14.60;99.90;;;;;;5027409;28;20065;-62
2021/03/10 12:33:22;;;;;;;26.50;21.00;;;13.90;99.90;;;;;;5021284;28;20624;-63
2021/03/10 12:35:48;;;;;;;24.38;21.13;;;14.60;99.90;;;;;;5032262;28;20030;-61
2021/03/10 12:38:13;;;;;;;30.10;22.50;;;14.80;99.30;;;;;;5024328;28;20517;-61
2021/03/10 12:40:39;;;;;;;26.65;22.67;;;14.70;98.90;;;;;;5012570;28;20022;-61